KAVP

Wilkes-Barre / Scranton International Airport

Wilkes-Barre/Scranton, Pennsylvania, USA
METAR KAVP 092054Z 22007KT 10SM CLR M02/M10 A3025 RMK AO2 SLP256 T10171100 56019
Observed Flight Rules
Dec-9 @ 20:54 UTC (an hour ago) Visual Flight Rules
Wind Visibility Clouds
220° at 7 knots 10 miles
  • Clear skies
Temperatures Readings
Current -2°C / 28°F
Dewpoint -10°C / 14°F
Humidity 55%
Altimeter 30.25" Hg
Pressure 1025.6 hPa
Elevation 291
METAR KAVP 092054Z 22007KT 10SM CLR M02/M10 A3025 RMK AO2 SLP256 T10171100 56019
Observed Flight Rules
Dec-9 @ 20:54 UTC
(an hour ago)
VFR
Wind Visibility
220° at 7 knots 10 miles
Clouds
  • Clear skies
Temperature Dewpoint
-2°C / 28°F -10°C / 14°F
Humidity Altimeter Pressure
55% 30.25" Hg 1025.6 hPa